sensor_id;sensor_type;location;lat;lon;timestamp;temperature;humidity
69731;SHT31;56996;48.138;11.538;2023-05-27T00:01:58;17.29;53.26
69731;SHT31;56996;48.138;11.538;2023-05-27T00:04:24;17.22;53.38
69731;SHT31;56996;48.138;11.538;2023-05-27T00:06:52;17.18;53.54
69731;SHT31;56996;48.138;11.538;2023-05-27T00:09:19;17.11;54.09
69731;SHT31;56996;48.138;11.538;2023-05-27T00:11:55;17.04;54.13
69731;SHT31;56996;48.138;11.538;2023-05-27T00:14:22;16.97;54.19
69731;SHT31;56996;48.138;11.538;2023-05-27T00:16:50;16.92;54.67
69731;SHT31;56996;48.138;11.538;2023-05-27T00:19:17;16.87;54.52
69731;SHT31;56996;48.138;11.538;2023-05-27T00:21:44;16.83;54.49
69731;SHT31;56996;48.138;11.538;2023-05-27T00:24:11;16.79;54.68
69731;SHT31;56996;48.138;11.538;2023-05-27T00:26:38;16.80;54.63
69731;SHT31;56996;48.138;11.538;2023-05-27T00:29:10;16.78;55.10
69731;SHT31;56996;48.138;11.538;2023-05-27T00:31:37;16.68;55.27
69731;SHT31;56996;48.138;11.538;2023-05-27T00:34:03;16.62;55.48
69731;SHT31;56996;48.138;11.538;2023-05-27T00:36:30;16.56;55.71
69731;SHT31;56996;48.138;11.538;2023-05-27T00:39:00;16.52;55.94
69731;SHT31;56996;48.138;11.538;2023-05-27T00:41:27;16.47;55.91
69731;SHT31;56996;48.138;11.538;2023-05-27T00:43:55;16.42;56.40
69731;SHT31;56996;48.138;11.538;2023-05-27T00:46:23;16.36;56.84
69731;SHT31;56996;48.138;11.538;2023-05-27T00:48:50;16.32;56.87
69731;SHT31;56996;48.138;11.538;2023-05-27T00:51:17;16.26;57.08
69731;SHT31;56996;48.138;11.538;2023-05-27T00:53:44;16.21;57.01
69731;SHT31;56996;48.138;11.538;2023-05-27T00:56:11;16.17;56.97
69731;SHT31;56996;48.138;11.538;2023-05-27T00:58:42;16.16;57.27
69731;SHT31;56996;48.138;11.538;2023-05-27T01:01:09;16.10;57.63
69731;SHT31;56996;48.138;11.538;2023-05-27T01:03:36;16.07;57.72
69731;SHT31;56996;48.138;11.538;2023-05-27T01:06:18;16.04;58.08
69731;SHT31;56996;48.138;11.538;2023-05-27T01:11:57;15.95;58.14
69731;SHT31;56996;48.138;11.538;2023-05-27T01:14:37;15.94;58.04
69731;SHT31;56996;48.138;11.538;2023-05-27T01:17:05;15.96;58.11
69731;SHT31;56996;48.138;11.538;2023-05-27T01:19:34;15.94;58.25
69731;SHT31;56996;48.138;11.538;2023-05-27T01:22:05;15.92;58.30
69731;SHT31;56996;48.138;11.538;2023-05-27T01:24:33;15.89;58.35
69731;SHT31;56996;48.138;11.538;2023-05-27T01:27:00;15.87;58.59
69731;SHT31;56996;48.138;11.538;2023-05-27T01:29:31;15.84;58.59
69731;SHT31;56996;48.138;11.538;2023-05-27T01:34:40;15.73;59.22
69731;SHT31;56996;48.138;11.538;2023-05-27T01:37:16;15.69;59.03
69731;SHT31;56996;48.138;11.538;2023-05-27T01:39:46;15.68;59.13
69731;SHT31;56996;48.138;11.538;2023-05-27T01:42:16;15.62;59.29
69731;SHT31;56996;48.138;11.538;2023-05-27T01:44:44;15.61;59.37
69731;SHT31;56996;48.138;11.538;2023-05-27T01:47:11;15.58;59.48
69731;SHT31;56996;48.138;11.538;2023-05-27T01:49:38;15.56;59.82
69731;SHT31;56996;48.138;11.538;2023-05-27T01:52:05;15.53;59.77
69731;SHT31;56996;48.138;11.538;2023-05-27T01:54:32;15.49;60.07
69731;SHT31;56996;48.138;11.538;2023-05-27T01:56:58;15.46;59.77
69731;SHT31;56996;48.138;11.538;2023-05-27T01:59:25;15.45;59.95
69731;SHT31;56996;48.138;11.538;2023-05-27T02:01:52;15.43;60.11
69731;SHT31;56996;48.138;11.538;2023-05-27T02:04:19;15.41;60.03
69731;SHT31;56996;48.138;11.538;2023-05-27T02:06:46;15.39;60.13
69731;SHT31;56996;48.138;11.538;2023-05-27T02:09:15;15.38;60.20
69731;SHT31;56996;48.138;11.538;2023-05-27T02:11:41;15.35;60.23
69731;SHT31;56996;48.138;11.538;2023-05-27T02:14:08;15.34;60.28
69731;SHT31;56996;48.138;11.538;2023-05-27T02:16:35;15.33;60.56
69731;SHT31;56996;48.138;11.538;2023-05-27T02:19:03;15.29;60.63
69731;SHT31;56996;48.138;11.538;2023-05-27T02:21:31;15.23;60.76
69731;SHT31;56996;48.138;11.538;2023-05-27T02:23:58;15.21;60.68
69731;SHT31;56996;48.138;11.538;2023-05-27T02:26:24;15.18;60.90
69731;SHT31;56996;48.138;11.538;2023-05-27T02:28:51;15.17;60.92
69731;SHT31;56996;48.138;11.538;2023-05-27T02:31:18;15.13;60.88
69731;SHT31;56996;48.138;11.538;2023-05-27T02:33:45;15.12;60.91
69731;SHT31;56996;48.138;11.538;2023-05-27T02:36:13;15.09;60.92
69731;SHT31;56996;48.138;11.538;2023-05-27T02:38:41;15.09;60.90
69731;SHT31;56996;48.138;11.538;2023-05-27T02:41:08;15.07;60.80
69731;SHT31;56996;48.138;11.538;2023-05-27T02:43:35;15.04;60.82
69731;SHT31;56996;48.138;11.538;2023-05-27T02:46:01;15.01;60.91
69731;SHT31;56996;48.138;11.538;2023-05-27T02:48:28;14.98;61.42
69731;SHT31;56996;48.138;11.538;2023-05-27T02:50:55;14.97;61.20
69731;SHT31;56996;48.138;11.538;2023-05-27T02:53:22;14.96;61.34
69731;SHT31;56996;48.138;11.538;2023-05-27T02:55:49;14.93;61.31
69731;SHT31;56996;48.138;11.538;2023-05-27T02:58:17;14.92;61.28
69731;SHT31;56996;48.138;11.538;2023-05-27T03:00:44;14.90;61.37
69731;SHT31;56996;48.138;11.538;2023-05-27T03:03:10;14.87;61.48
69731;SHT31;56996;48.138;11.538;2023-05-27T03:05:38;14.85;61.56
69731;SHT31;56996;48.138;11.538;2023-05-27T03:08:05;14.84;61.43
69731;SHT31;56996;48.138;11.538;2023-05-27T03:10:32;14.81;61.69
69731;SHT31;56996;48.138;11.538;2023-05-27T03:13:00;14.80;61.77
69731;SHT31;56996;48.138;11.538;2023-05-27T03:15:27;14.79;61.61
69731;SHT31;56996;48.138;11.538;2023-05-27T03:17:58;14.76;61.77
69731;SHT31;56996;48.138;11.538;2023-05-27T03:20:26;14.73;61.89
69731;SHT31;56996;48.138;11.538;2023-05-27T03:22:52;14.73;61.80
69731;SHT31;56996;48.138;11.538;2023-05-27T03:25:19;14.72;61.87
69731;SHT31;56996;48.138;11.538;2023-05-27T03:27:46;14.71;61.64
69731;SHT31;56996;48.138;11.538;2023-05-27T03:30:14;14.72;61.65
69731;SHT31;56996;48.138;11.538;2023-05-27T03:32:44;14.71;61.72
69731;SHT31;56996;48.138;11.538;2023-05-27T03:35:12;14.71;61.41
69731;SHT31;56996;48.138;11.538;2023-05-27T03:37:42;14.72;61.49
69731;SHT31;56996;48.138;11.538;2023-05-27T03:40:10;14.74;61.44
69731;SHT31;56996;48.138;11.538;2023-05-27T03:42:38;14.74;61.43
69731;SHT31;56996;48.138;11.538;2023-05-27T03:45:04;14.74;61.32
69731;SHT31;56996;48.138;11.538;2023-05-27T03:47:33;14.75;61.32
69731;SHT31;56996;48.138;11.538;2023-05-27T03:50:01;14.72;61.31
69731;SHT31;56996;48.138;11.538;2023-05-27T03:52:29;14.70;61.64
69731;SHT31;56996;48.138;11.538;2023-05-27T03:54:56;14.66;61.71
69731;SHT31;56996;48.138;11.538;2023-05-27T03:57:22;14.64;61.63
69731;SHT31;56996;48.138;11.538;2023-05-27T03:59:49;14.64;61.57
69731;SHT31;56996;48.138;11.538;2023-05-27T04:02:16;14.65;61.56
69731;SHT31;56996;48.138;11.538;2023-05-27T04:04:43;14.66;61.61
69731;SHT31;56996;48.138;11.538;2023-05-27T04:07:11;14.68;61.47
69731;SHT31;56996;48.138;11.538;2023-05-27T04:09:41;14.71;61.42
69731;SHT31;56996;48.138;11.538;2023-05-27T04:12:09;14.72;61.36
69731;SHT31;56996;48.138;11.538;2023-05-27T04:14:36;14.74;61.32
69731;SHT31;56996;48.138;11.538;2023-05-27T04:17:05;14.72;61.35
69731;SHT31;56996;48.138;11.538;2023-05-27T04:19:34;14.72;61.33
69731;SHT31;56996;48.138;11.538;2023-05-27T04:22:01;14.74;61.29
69731;SHT31;56996;48.138;11.538;2023-05-27T04:24:29;14.76;61.21
69731;SHT31;56996;48.138;11.538;2023-05-27T04:26:56;14.78;61.17
69731;SHT31;56996;48.138;11.538;2023-05-27T04:29:22;14.77;61.12
69731;SHT31;56996;48.138;11.538;2023-05-27T04:31:49;14.79;61.04
69731;SHT31;56996;48.138;11.538;2023-05-27T04:34:19;14.82;61.03
69731;SHT31;56996;48.138;11.538;2023-05-27T04:36:45;14.81;61.02
69731;SHT31;56996;48.138;11.538;2023-05-27T04:39:18;14.84;60.90
69731;SHT31;56996;48.138;11.538;2023-05-27T04:41:45;14.90;60.73
69731;SHT31;56996;48.138;11.538;2023-05-27T04:44:22;14.99;60.45
69731;SHT31;56996;48.138;11.538;2023-05-27T04:46:49;15.03;60.25
69731;SHT31;56996;48.138;11.538;2023-05-27T04:49:16;15.03;60.20
69731;SHT31;56996;48.138;11.538;2023-05-27T04:51:42;15.09;60.06
69731;SHT31;56996;48.138;11.538;2023-05-27T04:54:11;15.10;59.74
69731;SHT31;56996;48.138;11.538;2023-05-27T04:56:39;15.11;59.73
69731;SHT31;56996;48.138;11.538;2023-05-27T04:59:07;15.15;59.62
69731;SHT31;56996;48.138;11.538;2023-05-27T05:01:35;15.20;59.36
69731;SHT31;56996;48.138;11.538;2023-05-27T05:04:25;15.22;59.14
69731;SHT31;56996;48.138;11.538;2023-05-27T05:06:58;15.25;59.02
69731;SHT31;56996;48.138;11.538;2023-05-27T05:09:25;15.30;58.92
69731;SHT31;56996;48.138;11.538;2023-05-27T05:11:52;15.35;58.90
69731;SHT31;56996;48.138;11.538;2023-05-27T05:14:19;15.39;58.61
69731;SHT31;56996;48.138;11.538;2023-05-27T05:16:45;15.42;58.48
69731;SHT31;56996;48.138;11.538;2023-05-27T05:19:13;15.43;58.35
69731;SHT31;56996;48.138;11.538;2023-05-27T05:21:40;15.47;58.28
69731;SHT31;56996;48.138;11.538;2023-05-27T05:24:08;15.53;58.08
69731;SHT31;56996;48.138;11.538;2023-05-27T05:26:35;15.61;57.90
69731;SHT31;56996;48.138;11.538;2023-05-27T05:29:02;15.72;57.62
69731;SHT31;56996;48.138;11.538;2023-05-27T05:31:29;15.77;57.21
69731;SHT31;56996;48.138;11.538;2023-05-27T05:33:56;15.80;57.07
69731;SHT31;56996;48.138;11.538;2023-05-27T05:36:24;15.87;56.90
69731;SHT31;56996;48.138;11.538;2023-05-27T05:38:57;15.96;56.64
69731;SHT31;56996;48.138;11.538;2023-05-27T05:41:23;16.00;56.41
69731;SHT31;56996;48.138;11.538;2023-05-27T05:43:51;16.10;56.20
69731;SHT31;56996;48.138;11.538;2023-05-27T05:46:18;16.17;56.06
69731;SHT31;56996;48.138;11.538;2023-05-27T05:48:44;16.26;55.51
69731;SHT31;56996;48.138;11.538;2023-05-27T05:51:15;16.34;55.24
69731;SHT31;56996;48.138;11.538;2023-05-27T05:53:44;16.38;55.01
69731;SHT31;56996;48.138;11.538;2023-05-27T05:56:11;16.43;55.12
69731;SHT31;56996;48.138;11.538;2023-05-27T05:58:37;16.57;54.74
69731;SHT31;56996;48.138;11.538;2023-05-27T06:01:04;16.72;54.37
69731;SHT31;56996;48.138;11.538;2023-05-27T06:03:39;17.76;53.10
69731;SHT31;56996;48.138;11.538;2023-05-27T06:06:09;19.53;49.55
69731;SHT31;56996;48.138;11.538;2023-05-27T06:09:14;21.09;45.25
69731;SHT31;56996;48.138;11.538;2023-05-27T06:11:41;21.90;44.10
69731;SHT31;56996;48.138;11.538;2023-05-27T06:14:08;22.77;41.89
69731;SHT31;56996;48.138;11.538;2023-05-27T06:16:35;23.49;41.32
69731;SHT31;56996;48.138;11.538;2023-05-27T06:19:02;24.24;39.41
69731;SHT31;56996;48.138;11.538;2023-05-27T06:21:29;25.16;39.01
69731;SHT31;56996;48.138;11.538;2023-05-27T06:24:16;25.98;36.58
69731;SHT31;56996;48.138;11.538;2023-05-27T06:26:44;26.10;35.34
69731;SHT31;56996;48.138;11.538;2023-05-27T06:29:11;26.57;35.49
69731;SHT31;56996;48.138;11.538;2023-05-27T06:31:38;27.14;34.54
69731;SHT31;56996;48.138;11.538;2023-05-27T06:34:05;27.65;34.21
69731;SHT31;56996;48.138;11.538;2023-05-27T06:36:32;28.35;33.72
69731;SHT31;56996;48.138;11.538;2023-05-27T06:39:00;29.00;32.86
69731;SHT31;56996;48.138;11.538;2023-05-27T06:41:27;29.46;31.82
69731;SHT31;56996;48.138;11.538;2023-05-27T06:44:14;29.89;31.06
69731;SHT31;56996;48.138;11.538;2023-05-27T06:46:52;30.05;29.64
69731;SHT31;56996;48.138;11.538;2023-05-27T06:49:27;29.79;29.61
69731;SHT31;56996;48.138;11.538;2023-05-27T06:51:54;29.76;29.39
69731;SHT31;56996;48.138;11.538;2023-05-27T06:54:21;29.81;29.22
69731;SHT31;56996;48.138;11.538;2023-05-27T06:56:49;29.90;28.27
69731;SHT31;56996;48.138;11.538;2023-05-27T06:59:35;29.84;27.97
69731;SHT31;56996;48.138;11.538;2023-05-27T07:02:02;29.73;28.01
69731;SHT31;56996;48.138;11.538;2023-05-27T07:04:29;30.16;27.92
69731;SHT31;56996;48.138;11.538;2023-05-27T07:06:59;30.62;26.74
69731;SHT31;56996;48.138;11.538;2023-05-27T07:09:26;30.64;27.01
69731;SHT31;56996;48.138;11.538;2023-05-27T07:11:53;31.01;26.98
69731;SHT31;56996;48.138;11.538;2023-05-27T07:14:38;31.16;26.03
69731;SHT31;56996;48.138;11.538;2023-05-27T07:17:05;31.51;26.41
69731;SHT31;56996;48.138;11.538;2023-05-27T07:19:32;31.96;25.75
69731;SHT31;56996;48.138;11.538;2023-05-27T07:22:02;31.62;24.36
69731;SHT31;56996;48.138;11.538;2023-05-27T07:24:31;31.17;25.16
69731;SHT31;56996;48.138;11.538;2023-05-27T07:26:58;31.00;25.06
69731;SHT31;56996;48.138;11.538;2023-05-27T07:29:25;30.95;24.72
69731;SHT31;56996;48.138;11.538;2023-05-27T07:31:52;31.12;25.05
69731;SHT31;56996;48.138;11.538;2023-05-27T07:34:24;31.32;24.41
69731;SHT31;56996;48.138;11.538;2023-05-27T07:36:51;31.82;24.89
69731;SHT31;56996;48.138;11.538;2023-05-27T07:39:18;32.73;24.29
69731;SHT31;56996;48.138;11.538;2023-05-27T07:41:45;33.46;23.53
69731;SHT31;56996;48.138;11.538;2023-05-27T07:44:11;33.68;23.15
69731;SHT31;56996;48.138;11.538;2023-05-27T07:46:38;33.61;22.90
69731;SHT31;56996;48.138;11.538;2023-05-27T07:49:05;33.86;23.19
69731;SHT31;56996;48.138;11.538;2023-05-27T07:51:36;34.43;22.85
69731;SHT31;56996;48.138;11.538;2023-05-27T07:54:02;34.78;22.46
69731;SHT31;56996;48.138;11.538;2023-05-27T07:56:29;34.99;22.48
69731;SHT31;56996;48.138;11.538;2023-05-27T07:58:56;35.43;21.99
69731;SHT31;56996;48.138;11.538;2023-05-27T08:01:23;35.56;21.89
69731;SHT31;56996;48.138;11.538;2023-05-27T08:03:57;35.80;21.04
69731;SHT31;56996;48.138;11.538;2023-05-27T08:06:45;34.64;20.85
69731;SHT31;56996;48.138;11.538;2023-05-27T08:09:29;34.44;22.30
69731;SHT31;56996;48.138;11.538;2023-05-27T08:11:58;35.36;21.90
69731;SHT31;56996;48.138;11.538;2023-05-27T08:14:44;35.89;20.69
69731;SHT31;56996;48.138;11.538;2023-05-27T08:17:36;35.17;20.89
69731;SHT31;56996;48.138;11.538;2023-05-27T08:20:09;34.63;21.11
69731;SHT31;56996;48.138;11.538;2023-05-27T08:23:08;34.20;21.66
69731;SHT31;56996;48.138;11.538;2023-05-27T08:25:55;33.75;21.40
69731;SHT31;56996;48.138;11.538;2023-05-27T08:28:40;33.64;22.05
69731;SHT31;56996;48.138;11.538;2023-05-27T08:31:33;34.14;22.04
69731;SHT31;56996;48.138;11.538;2023-05-27T08:34:02;34.77;21.57
69731;SHT31;56996;48.138;11.538;2023-05-27T08:36:31;34.95;21.11
69731;SHT31;56996;48.138;11.538;2023-05-27T08:38:58;35.34;21.17
69731;SHT31;56996;48.138;11.538;2023-05-27T08:41:30;35.70;21.17
69731;SHT31;56996;48.138;11.538;2023-05-27T08:43:59;36.26;20.62
69731;SHT31;56996;48.138;11.538;2023-05-27T08:46:46;35.95;20.46
69731;SHT31;56996;48.138;11.538;2023-05-27T08:49:16;35.57;20.42
69731;SHT31;56996;48.138;11.538;2023-05-27T08:51:45;35.42;20.66
69731;SHT31;56996;48.138;11.538;2023-05-27T08:54:12;34.69;20.86
69731;SHT31;56996;48.138;11.538;2023-05-27T08:56:39;34.57;21.55
69731;SHT31;56996;48.138;11.538;2023-05-27T08:59:11;34.61;20.98
69731;SHT31;56996;48.138;11.538;2023-05-27T09:01:39;34.38;21.64
69731;SHT31;56996;48.138;11.538;2023-05-27T09:04:15;34.42;21.55
69731;SHT31;56996;48.138;11.538;2023-05-27T09:06:45;34.76;21.42
69731;SHT31;56996;48.138;11.538;2023-05-27T09:09:56;35.49;21.21
69731;SHT31;56996;48.138;11.538;2023-05-27T09:12:24;36.21;20.61
69731;SHT31;56996;48.138;11.538;2023-05-27T09:14:53;36.21;20.28
69731;SHT31;56996;48.138;11.538;2023-05-27T09:17:23;35.81;20.39
69731;SHT31;56996;48.138;11.538;2023-05-27T09:19:51;35.97;20.46
69731;SHT31;56996;48.138;11.538;2023-05-27T09:22:26;36.01;20.86
69731;SHT31;56996;48.138;11.538;2023-05-27T09:24:57;36.29;20.54
69731;SHT31;56996;48.138;11.538;2023-05-27T09:27:31;35.99;20.43
69731;SHT31;56996;48.138;11.538;2023-05-27T09:30:05;35.55;20.92
69731;SHT31;56996;48.138;11.538;2023-05-27T09:32:34;34.80;20.99
69731;SHT31;56996;48.138;11.538;2023-05-27T09:35:01;33.90;22.01
69731;SHT31;56996;48.138;11.538;2023-05-27T09:37:29;33.44;22.34
69731;SHT31;56996;48.138;11.538;2023-05-27T09:40:05;33.03;22.89
69731;SHT31;56996;48.138;11.538;2023-05-27T09:42:47;32.94;23.07
69731;SHT31;56996;48.138;11.538;2023-05-27T09:45:16;32.40;23.51
69731;SHT31;56996;48.138;11.538;2023-05-27T09:47:48;31.76;24.19
69731;SHT31;56996;48.138;11.538;2023-05-27T09:50:23;31.37;24.67
69731;SHT31;56996;48.138;11.538;2023-05-27T09:52:52;30.69;25.41
69731;SHT31;56996;48.138;11.538;2023-05-27T09:55:36;30.16;25.86
69731;SHT31;56996;48.138;11.538;2023-05-27T09:58:05;29.97;25.96
69731;SHT31;56996;48.138;11.538;2023-05-27T10:00:33;29.59;26.67
69731;SHT31;56996;48.138;11.538;2023-05-27T10:03:00;29.17;27.19
69731;SHT31;56996;48.138;11.538;2023-05-27T10:05:28;28.63;27.49
69731;SHT31;56996;48.138;11.538;2023-05-27T10:07:56;28.50;27.62
69731;SHT31;56996;48.138;11.538;2023-05-27T10:10:43;28.59;27.82
69731;SHT31;56996;48.138;11.538;2023-05-27T10:13:13;28.13;28.23
69731;SHT31;56996;48.138;11.538;2023-05-27T10:15:46;27.74;28.72
69731;SHT31;56996;48.138;11.538;2023-05-27T10:18:22;27.68;28.83
69731;SHT31;56996;48.138;11.538;2023-05-27T10:20:53;27.28;29.01
69731;SHT31;56996;48.138;11.538;2023-05-27T10:23:23;27.09;29.31
69731;SHT31;56996;48.138;11.538;2023-05-27T10:28:37;27.00;29.69
69731;SHT31;56996;48.138;11.538;2023-05-27T10:31:17;26.88;29.60
69731;SHT31;56996;48.138;11.538;2023-05-27T10:33:48;26.71;29.58
69731;SHT31;56996;48.138;11.538;2023-05-27T10:36:27;26.34;30.46
69731;SHT31;56996;48.138;11.538;2023-05-27T10:39:00;26.14;30.99
69731;SHT31;56996;48.138;11.538;2023-05-27T10:41:50;26.13;30.40
69731;SHT31;56996;48.138;11.538;2023-05-27T10:47:09;26.12;30.48
69731;SHT31;56996;48.138;11.538;2023-05-27T10:49:38;25.93;30.83
69731;SHT31;56996;48.138;11.538;2023-05-27T10:52:15;25.85;30.90
69731;SHT31;56996;48.138;11.538;2023-05-27T10:54:44;25.79;31.19
69731;SHT31;56996;48.138;11.538;2023-05-27T10:57:13;25.67;31.26
69731;SHT31;56996;48.138;11.538;2023-05-27T10:59:48;25.66;30.96
69731;SHT31;56996;48.138;11.538;2023-05-27T11:02:23;25.70;30.96
69731;SHT31;56996;48.138;11.538;2023-05-27T11:04:50;25.60;31.12
69731;SHT31;56996;48.138;11.538;2023-05-27T11:07:18;25.69;31.11
69731;SHT31;56996;48.138;11.538;2023-05-27T11:09:47;25.69;31.29
69731;SHT31;56996;48.138;11.538;2023-05-27T11:12:17;25.42;31.49
69731;SHT31;56996;48.138;11.538;2023-05-27T11:14:46;25.31;31.44
69731;SHT31;56996;48.138;11.538;2023-05-27T11:17:15;25.34;31.54
69731;SHT31;56996;48.138;11.538;2023-05-27T11:19:42;25.28;31.93
69731;SHT31;56996;48.138;11.538;2023-05-27T11:22:12;25.11;32.19
69731;SHT31;56996;48.138;11.538;2023-05-27T11:24:40;24.98;32.42
69731;SHT31;56996;48.138;11.538;2023-05-27T11:27:10;24.84;32.59
69731;SHT31;56996;48.138;11.538;2023-05-27T11:29:48;24.57;33.13
69731;SHT31;56996;48.138;11.538;2023-05-27T11:32:17;24.46;33.16
69731;SHT31;56996;48.138;11.538;2023-05-27T11:34:46;24.51;33.01
69731;SHT31;56996;48.138;11.538;2023-05-27T11:37:14;24.59;32.85
69731;SHT31;56996;48.138;11.538;2023-05-27T11:39:52;24.60;32.44
69731;SHT31;56996;48.138;11.538;2023-05-27T11:42:22;24.48;32.29
69731;SHT31;56996;48.138;11.538;2023-05-27T11:44:52;24.39;32.61
69731;SHT31;56996;48.138;11.538;2023-05-27T11:47:20;24.33;32.62
69731;SHT31;56996;48.138;11.538;2023-05-27T11:49:49;24.44;32.51
69731;SHT31;56996;48.138;11.538;2023-05-27T11:52:16;24.57;32.15
69731;SHT31;56996;48.138;11.538;2023-05-27T11:54:44;24.47;32.07
69731;SHT31;56996;48.138;11.538;2023-05-27T11:57:23;24.42;32.21
69731;SHT31;56996;48.138;11.538;2023-05-27T11:59:50;24.41;31.97
69731;SHT31;56996;48.138;11.538;2023-05-27T12:02:17;24.51;31.68
69731;SHT31;56996;48.138;11.538;2023-05-27T12:04:47;24.58;31.48
69731;SHT31;56996;48.138;11.538;2023-05-27T12:07:14;24.65;31.54
69731;SHT31;56996;48.138;11.538;2023-05-27T12:09:46;24.65;31.35
69731;SHT31;56996;48.138;11.538;2023-05-27T12:12:15;24.67;31.39
69731;SHT31;56996;48.138;11.538;2023-05-27T12:14:42;24.65;31.27
69731;SHT31;56996;48.138;11.538;2023-05-27T12:17:09;24.55;31.24
69731;SHT31;56996;48.138;11.538;2023-05-27T12:19:35;24.57;31.03
69731;SHT31;56996;48.138;11.538;2023-05-27T12:22:02;24.61;31.18
69731;SHT31;56996;48.138;11.538;2023-05-27T12:24:29;24.59;30.97
69731;SHT31;56996;48.138;11.538;2023-05-27T12:26:57;24.57;30.93
69731;SHT31;56996;48.138;11.538;2023-05-27T12:29:24;24.56;30.75
69731;SHT31;56996;48.138;11.538;2023-05-27T12:31:52;24.53;30.49
69731;SHT31;56996;48.138;11.538;2023-05-27T12:34:19;24.54;30.45
69731;SHT31;56996;48.138;11.538;2023-05-27T12:36:46;24.59;30.66
69731;SHT31;56996;48.138;11.538;2023-05-27T12:39:13;24.67;30.77
69731;SHT31;56996;48.138;11.538;2023-05-27T12:41:41;24.76;30.60
69731;SHT31;56996;48.138;11.538;2023-05-27T12:44:07;24.67;30.49
69731;SHT31;56996;48.138;11.538;2023-05-27T12:46:34;24.70;30.20
69731;SHT31;56996;48.138;11.538;2023-05-27T12:49:01;24.71;30.22
69731;SHT31;56996;48.138;11.538;2023-05-27T12:51:27;24.66;30.38
69731;SHT31;56996;48.138;11.538;2023-05-27T12:53:54;24.58;30.64
69731;SHT31;56996;48.138;11.538;2023-05-27T12:56:21;24.62;30.34
69731;SHT31;56996;48.138;11.538;2023-05-27T12:58:48;24.68;29.91
69731;SHT31;56996;48.138;11.538;2023-05-27T13:01:14;24.69;29.50
69731;SHT31;56996;48.138;11.538;2023-05-27T13:03:41;24.72;29.34
69731;SHT31;56996;48.138;11.538;2023-05-27T13:06:09;24.77;29.53
69731;SHT31;56996;48.138;11.538;2023-05-27T13:08:35;24.80;29.65
69731;SHT31;56996;48.138;11.538;2023-05-27T13:11:02;24.80;29.60
69731;SHT31;56996;48.138;11.538;2023-05-27T13:13:29;24.71;29.80
69731;SHT31;56996;48.138;11.538;2023-05-27T13:15:56;24.70;29.86
69731;SHT31;56996;48.138;11.538;2023-05-27T13:18:24;24.78;29.71
69731;SHT31;56996;48.138;11.538;2023-05-27T13:20:50;24.77;29.65
69731;SHT31;56996;48.138;11.538;2023-05-27T13:23:17;24.76;29.56
69731;SHT31;56996;48.138;11.538;2023-05-27T13:25:44;24.70;29.62
69731;SHT31;56996;48.138;11.538;2023-05-27T13:28:11;24.74;29.61
69731;SHT31;56996;48.138;11.538;2023-05-27T13:30:38;24.78;29.57
69731;SHT31;56996;48.138;11.538;2023-05-27T13:33:04;24.83;29.59
69731;SHT31;56996;48.138;11.538;2023-05-27T13:35:31;24.79;29.50
69731;SHT31;56996;48.138;11.538;2023-05-27T13:37:58;24.73;30.07
69731;SHT31;56996;48.138;11.538;2023-05-27T13:40:27;24.75;30.31
69731;SHT31;56996;48.138;11.538;2023-05-27T13:42:53;24.70;30.42
69731;SHT31;56996;48.138;11.538;2023-05-27T13:45:22;24.71;30.47
69731;SHT31;56996;48.138;11.538;2023-05-27T13:47:49;24.67;30.50
69731;SHT31;56996;48.138;11.538;2023-05-27T13:50:17;24.66;30.22
69731;SHT31;56996;48.138;11.538;2023-05-27T13:52:44;24.67;29.96
69731;SHT31;56996;48.138;11.538;2023-05-27T13:55:12;24.72;29.92
69731;SHT31;56996;48.138;11.538;2023-05-27T13:57:39;24.64;29.81
69731;SHT31;56996;48.138;11.538;2023-05-27T14:00:06;24.56;30.19
69731;SHT31;56996;48.138;11.538;2023-05-27T14:02:34;24.51;30.53
69731;SHT31;56996;48.138;11.538;2023-05-27T14:05:01;24.55;30.65
69731;SHT31;56996;48.138;11.538;2023-05-27T14:07:29;24.61;30.66
69731;SHT31;56996;48.138;11.538;2023-05-27T14:09:56;24.62;30.65
69731;SHT31;56996;48.138;11.538;2023-05-27T14:12:23;24.61;30.45
69731;SHT31;56996;48.138;11.538;2023-05-27T14:14:51;24.50;30.62
69731;SHT31;56996;48.138;11.538;2023-05-27T14:17:18;24.54;30.57
69731;SHT31;56996;48.138;11.538;2023-05-27T14:19:44;24.52;30.43
69731;SHT31;56996;48.138;11.538;2023-05-27T14:22:11;24.62;30.25
69731;SHT31;56996;48.138;11.538;2023-05-27T14:24:38;24.77;29.94
69731;SHT31;56996;48.138;11.538;2023-05-27T14:27:05;24.76;29.50
69731;SHT31;56996;48.138;11.538;2023-05-27T14:29:33;24.61;29.60
69731;SHT31;56996;48.138;11.538;2023-05-27T14:32:00;24.60;29.72
69731;SHT31;56996;48.138;11.538;2023-05-27T14:34:27;24.69;29.62
69731;SHT31;56996;48.138;11.538;2023-05-27T14:36:54;24.67;29.31
69731;SHT31;56996;48.138;11.538;2023-05-27T14:39:21;24.69;29.18
69731;SHT31;56996;48.138;11.538;2023-05-27T14:41:47;24.64;29.27
69731;SHT31;56996;48.138;11.538;2023-05-27T14:44:14;24.68;29.08
69731;SHT31;56996;48.138;11.538;2023-05-27T14:46:41;24.68;29.19
69731;SHT31;56996;48.138;11.538;2023-05-27T14:49:08;24.61;29.47
69731;SHT31;56996;48.138;11.538;2023-05-27T14:51:35;24.54;29.86
69731;SHT31;56996;48.138;11.538;2023-05-27T14:54:02;24.50;30.06
69731;SHT31;56996;48.138;11.538;2023-05-27T14:56:29;24.45;30.23
69731;SHT31;56996;48.138;11.538;2023-05-27T14:58:56;24.45;30.26
69731;SHT31;56996;48.138;11.538;2023-05-27T15:01:22;24.43;30.20
69731;SHT31;56996;48.138;11.538;2023-05-27T15:03:49;24.35;30.45
69731;SHT31;56996;48.138;11.538;2023-05-27T15:06:16;24.36;30.32
69731;SHT31;56996;48.138;11.538;2023-05-27T15:08:43;24.31;30.14
69731;SHT31;56996;48.138;11.538;2023-05-27T15:11:09;24.29;30.07
69731;SHT31;56996;48.138;11.538;2023-05-27T15:13:37;24.22;30.17
69731;SHT31;56996;48.138;11.538;2023-05-27T15:16:04;24.22;29.86
69731;SHT31;56996;48.138;11.538;2023-05-27T15:18:31;24.20;29.44
69731;SHT31;56996;48.138;11.538;2023-05-27T15:20:58;24.10;29.18
69731;SHT31;56996;48.138;11.538;2023-05-27T15:23:25;24.08;29.18
69731;SHT31;56996;48.138;11.538;2023-05-27T15:25:52;24.11;29.00
69731;SHT31;56996;48.138;11.538;2023-05-27T15:28:19;24.06;28.88
69731;SHT31;56996;48.138;11.538;2023-05-27T15:30:46;24.01;28.92
69731;SHT31;56996;48.138;11.538;2023-05-27T15:33:13;24.00;29.01
69731;SHT31;56996;48.138;11.538;2023-05-27T15:35:40;23.90;29.15
69731;SHT31;56996;48.138;11.538;2023-05-27T15:38:07;23.85;28.72
69731;SHT31;56996;48.138;11.538;2023-05-27T15:40:34;23.81;28.48